In Rescue
 
Open Full Screen Window  High Contrast Mode
Wind Gusting 00 knots
06
March 19, 2019 6:47 PM EDT
Weather Information
Wind Direction
  250 °
Wind Speed
  06 kt (7 mph)
Wind Gust
  00 kt (0 mph)
Altimeter
30.18 in
Visibility
10 SM
Temperature
05° C
41° F
Dewpoint
-04° C
25° F
Humidity
53%
Sky Condition
Broken @ 11,000 ft
VFR

METAR KSLH 192247Z AUTO 25006KT 10SM BKN110 05/M04 A3018 RMK AO2 T00501040

FAA Disclaimer: The data displayed is for advisory purposes only and is not to be used for flight planning or operations.